sensor_id;sensor_type;location;lat;lon;timestamp;P1;durP1;ratioP1;P2;durP2;ratioP2
59193;SDS011;44967;48.598;15.650;2023-04-25T00:01:33;1.50;;;1.10;;
59193;SDS011;44967;48.598;15.650;2023-04-25T00:04:00;0.95;;;0.90;;
59193;SDS011;44967;48.598;15.650;2023-04-25T00:06:26;0.70;;;0.70;;
59193;SDS011;44967;48.598;15.650;2023-04-25T00:08:55;1.10;;;1.00;;
59193;SDS011;44967;48.598;15.650;2023-04-25T00:11:22;0.95;;;0.95;;
59193;SDS011;44967;48.598;15.650;2023-04-25T00:13:48;2.35;;;1.08;;
59193;SDS011;44967;48.598;15.650;2023-04-25T00:16:16;0.95;;;0.95;;
59193;SDS011;44967;48.598;15.650;2023-04-25T00:18:42;1.25;;;1.15;;
59193;SDS011;44967;48.598;15.650;2023-04-25T00:21:08;1.10;;;1.00;;
59193;SDS011;44967;48.598;15.650;2023-04-25T00:23:34;1.83;;;1.00;;
59193;SDS011;44967;48.598;15.650;2023-04-25T00:26:02;1.30;;;1.10;;
59193;SDS011;44967;48.598;15.650;2023-04-25T00:28:27;1.00;;;1.00;;
59193;SDS011;44967;48.598;15.650;2023-04-25T00:30:53;1.90;;;1.00;;
59193;SDS011;44967;48.598;15.650;2023-04-25T00:33:19;2.00;;;1.10;;
59193;SDS011;44967;48.598;15.650;2023-04-25T00:35:44;1.40;;;1.30;;
59193;SDS011;44967;48.598;15.650;2023-04-25T00:38:10;0.80;;;0.80;;
59193;SDS011;44967;48.598;15.650;2023-04-25T00:40:36;1.02;;;0.93;;
59193;SDS011;44967;48.598;15.650;2023-04-25T00:43:01;1.38;;;1.27;;
59193;SDS011;44967;48.598;15.650;2023-04-25T00:45:28;1.13;;;1.00;;
59193;SDS011;44967;48.598;15.650;2023-04-25T00:47:55;2.63;;;1.23;;
59193;SDS011;44967;48.598;15.650;2023-04-25T00:50:21;1.00;;;1.00;;
59193;SDS011;44967;48.598;15.650;2023-04-25T00:52:47;1.45;;;1.20;;
59193;SDS011;44967;48.598;15.650;2023-04-25T00:55:12;1.45;;;1.35;;
59193;SDS011;44967;48.598;15.650;2023-04-25T00:57:38;2.00;;;1.15;;
59193;SDS011;44967;48.598;15.650;2023-04-25T01:00:06;1.38;;;1.27;;
59193;SDS011;44967;48.598;15.650;2023-04-25T01:02:32;1.40;;;1.27;;
59193;SDS011;44967;48.598;15.650;2023-04-25T01:04:58;1.92;;;1.35;;
59193;SDS011;44967;48.598;15.650;2023-04-25T01:07:24;2.50;;;1.40;;
59193;SDS011;44967;48.598;15.650;2023-04-25T01:09:52;1.55;;;1.33;;
59193;SDS011;44967;48.598;15.650;2023-04-25T01:12:18;1.15;;;1.05;;
59193;SDS011;44967;48.598;15.650;2023-04-25T01:14:43;3.30;;;1.30;;
59193;SDS011;44967;48.598;15.650;2023-04-25T01:17:10;1.70;;;1.17;;
59193;SDS011;44967;48.598;15.650;2023-04-25T01:19:36;1.20;;;1.10;;
59193;SDS011;44967;48.598;15.650;2023-04-25T01:22:03;1.30;;;1.20;;
59193;SDS011;44967;48.598;15.650;2023-04-25T01:24:30;1.10;;;1.00;;
59193;SDS011;44967;48.598;15.650;2023-04-25T01:26:58;0.95;;;0.95;;
59193;SDS011;44967;48.598;15.650;2023-04-25T01:29:24;1.23;;;1.13;;
59193;SDS011;44967;48.598;15.650;2023-04-25T01:31:51;2.28;;;1.23;;
59193;SDS011;44967;48.598;15.650;2023-04-25T01:34:18;2.65;;;1.40;;
59193;SDS011;44967;48.598;15.650;2023-04-25T01:36:44;2.05;;;1.60;;
59193;SDS011;44967;48.598;15.650;2023-04-25T01:39:10;1.40;;;1.20;;
59193;SDS011;44967;48.598;15.650;2023-04-25T01:41:35;1.02;;;1.02;;
59193;SDS011;44967;48.598;15.650;2023-04-25T01:44:02;2.08;;;1.23;;
59193;SDS011;44967;48.598;15.650;2023-04-25T01:46:28;1.30;;;1.20;;
59193;SDS011;44967;48.598;15.650;2023-04-25T01:48:54;1.42;;;1.30;;
59193;SDS011;44967;48.598;15.650;2023-04-25T01:51:19;2.15;;;1.30;;
59193;SDS011;44967;48.598;15.650;2023-04-25T01:53:45;1.50;;;1.38;;
59193;SDS011;44967;48.598;15.650;2023-04-25T01:56:11;1.70;;;1.40;;
59193;SDS011;44967;48.598;15.650;2023-04-25T01:58:37;1.42;;;1.08;;
59193;SDS011;44967;48.598;15.650;2023-04-25T02:01:03;2.05;;;1.45;;
59193;SDS011;44967;48.598;15.650;2023-04-25T02:03:30;1.27;;;1.10;;
59193;SDS011;44967;48.598;15.650;2023-04-25T02:05:57;1.30;;;1.20;;
59193;SDS011;44967;48.598;15.650;2023-04-25T02:08:22;2.40;;;1.42;;
59193;SDS011;44967;48.598;15.650;2023-04-25T02:10:48;1.52;;;1.42;;
59193;SDS011;44967;48.598;15.650;2023-04-25T02:13:14;1.67;;;1.17;;
59193;SDS011;44967;48.598;15.650;2023-04-25T02:15:39;1.65;;;1.27;;
59193;SDS011;44967;48.598;15.650;2023-04-25T02:18:06;1.50;;;1.40;;
59193;SDS011;44967;48.598;15.650;2023-04-25T02:20:32;2.38;;;1.20;;
59193;SDS011;44967;48.598;15.650;2023-04-25T02:22:58;1.40;;;1.30;;
59193;SDS011;44967;48.598;15.650;2023-04-25T02:25:23;1.63;;;1.50;;
59193;SDS011;44967;48.598;15.650;2023-04-25T02:27:50;2.95;;;1.60;;
59193;SDS011;44967;48.598;15.650;2023-04-25T02:30:16;1.73;;;1.30;;
59193;SDS011;44967;48.598;15.650;2023-04-25T02:32:42;1.70;;;1.60;;
59193;SDS011;44967;48.598;15.650;2023-04-25T02:35:08;1.88;;;1.67;;
59193;SDS011;44967;48.598;15.650;2023-04-25T02:37:34;1.65;;;1.50;;
59193;SDS011;44967;48.598;15.650;2023-04-25T02:40:01;2.78;;;1.55;;
59193;SDS011;44967;48.598;15.650;2023-04-25T02:42:28;2.03;;;1.55;;
59193;SDS011;44967;48.598;15.650;2023-04-25T02:44:54;3.33;;;1.50;;
59193;SDS011;44967;48.598;15.650;2023-04-25T02:47:20;1.40;;;1.30;;
59193;SDS011;44967;48.598;15.650;2023-04-25T02:49:45;2.50;;;1.67;;
59193;SDS011;44967;48.598;15.650;2023-04-25T02:52:11;3.67;;;2.10;;
59193;SDS011;44967;48.598;15.650;2023-04-25T02:54:38;2.78;;;1.55;;
59193;SDS011;44967;48.598;15.650;2023-04-25T02:57:04;4.70;;;1.85;;
59193;SDS011;44967;48.598;15.650;2023-04-25T02:59:30;2.00;;;1.63;;
59193;SDS011;44967;48.598;15.650;2023-04-25T03:01:55;1.83;;;1.33;;
59193;SDS011;44967;48.598;15.650;2023-04-25T03:04:21;3.33;;;1.83;;
59193;SDS011;44967;48.598;15.650;2023-04-25T03:06:52;1.80;;;1.60;;
59193;SDS011;44967;48.598;15.650;2023-04-25T03:09:18;2.65;;;1.63;;
59193;SDS011;44967;48.598;15.650;2023-04-25T03:11:44;1.52;;;1.40;;
59193;SDS011;44967;48.598;15.650;2023-04-25T03:14:10;1.70;;;1.40;;
59193;SDS011;44967;48.598;15.650;2023-04-25T03:16:36;1.35;;;1.25;;
59193;SDS011;44967;48.598;15.650;2023-04-25T03:19:03;1.90;;;1.60;;
59193;SDS011;44967;48.598;15.650;2023-04-25T03:21:29;4.75;;;1.75;;
59193;SDS011;44967;48.598;15.650;2023-04-25T03:23:57;2.95;;;1.85;;
59193;SDS011;44967;48.598;15.650;2023-04-25T03:26:23;1.83;;;1.52;;
59193;SDS011;44967;48.598;15.650;2023-04-25T03:28:49;1.45;;;1.35;;
59193;SDS011;44967;48.598;15.650;2023-04-25T03:31:15;3.42;;;1.50;;
59193;SDS011;44967;48.598;15.650;2023-04-25T03:33:40;2.67;;;1.73;;
59193;SDS011;44967;48.598;15.650;2023-04-25T03:36:06;2.33;;;1.73;;
59193;SDS011;44967;48.598;15.650;2023-04-25T03:38:32;3.63;;;1.60;;
59193;SDS011;44967;48.598;15.650;2023-04-25T03:40:58;2.17;;;1.70;;
59193;SDS011;44967;48.598;15.650;2023-04-25T03:43:24;2.22;;;1.60;;
59193;SDS011;44967;48.598;15.650;2023-04-25T03:45:50;1.63;;;1.50;;
59193;SDS011;44967;48.598;15.650;2023-04-25T03:48:16;1.60;;;1.50;;
59193;SDS011;44967;48.598;15.650;2023-04-25T03:50:41;2.22;;;1.70;;
59193;SDS011;44967;48.598;15.650;2023-04-25T03:53:07;3.13;;;1.40;;
59193;SDS011;44967;48.598;15.650;2023-04-25T03:55:33;3.60;;;1.40;;
59193;SDS011;44967;48.598;15.650;2023-04-25T03:57:58;2.83;;;1.48;;
59193;SDS011;44967;48.598;15.650;2023-04-25T04:00:24;1.92;;;1.52;;
59193;SDS011;44967;48.598;15.650;2023-04-25T04:02:50;2.78;;;1.75;;
59193;SDS011;44967;48.598;15.650;2023-04-25T04:05:16;1.98;;;1.48;;
59193;SDS011;44967;48.598;15.650;2023-04-25T04:07:42;2.60;;;1.50;;
59193;SDS011;44967;48.598;15.650;2023-04-25T04:10:11;1.63;;;1.52;;
59193;SDS011;44967;48.598;15.650;2023-04-25T04:12:37;3.45;;;2.20;;
59193;SDS011;44967;48.598;15.650;2023-04-25T04:15:04;1.80;;;1.50;;
59193;SDS011;44967;48.598;15.650;2023-04-25T04:17:31;2.15;;;1.30;;
59193;SDS011;44967;48.598;15.650;2023-04-25T04:19:57;2.30;;;1.40;;
59193;SDS011;44967;48.598;15.650;2023-04-25T04:22:23;2.00;;;1.50;;
59193;SDS011;44967;48.598;15.650;2023-04-25T04:24:49;2.53;;;1.50;;
59193;SDS011;44967;48.598;15.650;2023-04-25T04:27:18;3.17;;;1.73;;
59193;SDS011;44967;48.598;15.650;2023-04-25T04:29:44;2.47;;;1.90;;
59193;SDS011;44967;48.598;15.650;2023-04-25T04:32:11;3.05;;;1.80;;
59193;SDS011;44967;48.598;15.650;2023-04-25T04:34:38;2.13;;;1.80;;
59193;SDS011;44967;48.598;15.650;2023-04-25T04:37:05;3.42;;;2.08;;
59193;SDS011;44967;48.598;15.650;2023-04-25T04:39:32;4.00;;;2.17;;
59193;SDS011;44967;48.598;15.650;2023-04-25T04:41:58;1.83;;;1.73;;
59193;SDS011;44967;48.598;15.650;2023-04-25T04:44:26;2.60;;;2.13;;
59193;SDS011;44967;48.598;15.650;2023-04-25T04:46:52;2.15;;;1.95;;
59193;SDS011;44967;48.598;15.650;2023-04-25T04:49:18;1.55;;;1.45;;
59193;SDS011;44967;48.598;15.650;2023-04-25T04:51:43;2.10;;;1.65;;
59193;SDS011;44967;48.598;15.650;2023-04-25T04:54:12;1.77;;;1.67;;
59193;SDS011;44967;48.598;15.650;2023-04-25T04:56:38;2.35;;;1.80;;
59193;SDS011;44967;48.598;15.650;2023-04-25T04:59:04;1.85;;;1.65;;
59193;SDS011;44967;48.598;15.650;2023-04-25T05:01:30;2.53;;;1.90;;
59193;SDS011;44967;48.598;15.650;2023-04-25T05:03:56;2.60;;;1.95;;
59193;SDS011;44967;48.598;15.650;2023-04-25T05:06:26;3.00;;;2.38;;
59193;SDS011;44967;48.598;15.650;2023-04-25T05:08:52;3.38;;;2.72;;
59193;SDS011;44967;48.598;15.650;2023-04-25T05:11:18;2.78;;;2.20;;
59193;SDS011;44967;48.598;15.650;2023-04-25T05:13:44;2.35;;;2.10;;
59193;SDS011;44967;48.598;15.650;2023-04-25T05:16:11;5.22;;;2.83;;
59193;SDS011;44967;48.598;15.650;2023-04-25T05:18:37;4.32;;;2.85;;
59193;SDS011;44967;48.598;15.650;2023-04-25T05:21:03;4.50;;;2.03;;
59193;SDS011;44967;48.598;15.650;2023-04-25T05:23:28;3.05;;;1.63;;
59193;SDS011;44967;48.598;15.650;2023-04-25T05:25:55;3.40;;;2.25;;
59193;SDS011;44967;48.598;15.650;2023-04-25T05:28:22;2.88;;;2.22;;
59193;SDS011;44967;48.598;15.650;2023-04-25T05:30:47;2.78;;;1.98;;
59193;SDS011;44967;48.598;15.650;2023-04-25T05:33:13;4.90;;;2.10;;
59193;SDS011;44967;48.598;15.650;2023-04-25T05:35:39;5.50;;;1.98;;
59193;SDS011;44967;48.598;15.650;2023-04-25T05:38:05;3.17;;;2.30;;
59193;SDS011;44967;48.598;15.650;2023-04-25T05:40:30;5.20;;;2.50;;
59193;SDS011;44967;48.598;15.650;2023-04-25T05:42:57;2.63;;;2.30;;
59193;SDS011;44967;48.598;15.650;2023-04-25T05:45:22;4.20;;;2.00;;
59193;SDS011;44967;48.598;15.650;2023-04-25T05:47:48;2.85;;;2.10;;
59193;SDS011;44967;48.598;15.650;2023-04-25T05:50:13;4.80;;;2.95;;
59193;SDS011;44967;48.598;15.650;2023-04-25T05:52:39;4.32;;;3.50;;
59193;SDS011;44967;48.598;15.650;2023-04-25T05:55:05;4.32;;;3.75;;
59193;SDS011;44967;48.598;15.650;2023-04-25T05:57:31;3.53;;;2.15;;
59193;SDS011;44967;48.598;15.650;2023-04-25T05:59:57;2.03;;;1.90;;
59193;SDS011;44967;48.598;15.650;2023-04-25T06:02:23;2.28;;;1.75;;
59193;SDS011;44967;48.598;15.650;2023-04-25T06:04:49;2.30;;;1.80;;
59193;SDS011;44967;48.598;15.650;2023-04-25T06:07:15;2.45;;;1.70;;
59193;SDS011;44967;48.598;15.650;2023-04-25T06:09:42;2.03;;;1.88;;
59193;SDS011;44967;48.598;15.650;2023-04-25T06:12:08;2.05;;;1.63;;
59193;SDS011;44967;48.598;15.650;2023-04-25T06:14:34;3.85;;;1.77;;
59193;SDS011;44967;48.598;15.650;2023-04-25T06:16:59;1.90;;;1.50;;
59193;SDS011;44967;48.598;15.650;2023-04-25T06:19:32;3.15;;;1.52;;
59193;SDS011;44967;48.598;15.650;2023-04-25T06:21:58;2.20;;;2.00;;
59193;SDS011;44967;48.598;15.650;2023-04-25T06:24:24;2.22;;;1.58;;
59193;SDS011;44967;48.598;15.650;2023-04-25T06:26:49;2.42;;;1.48;;
59193;SDS011;44967;48.598;15.650;2023-04-25T06:29:15;1.77;;;1.67;;
59193;SDS011;44967;48.598;15.650;2023-04-25T06:31:41;2.15;;;1.55;;
59193;SDS011;44967;48.598;15.650;2023-04-25T06:34:06;1.55;;;1.40;;
59193;SDS011;44967;48.598;15.650;2023-04-25T06:36:32;2.40;;;1.80;;
59193;SDS011;44967;48.598;15.650;2023-04-25T06:38:58;2.42;;;2.10;;
59193;SDS011;44967;48.598;15.650;2023-04-25T06:41:23;4.25;;;1.60;;
59193;SDS011;44967;48.598;15.650;2023-04-25T06:43:49;1.67;;;1.58;;
59193;SDS011;44967;48.598;15.650;2023-04-25T06:46:15;2.70;;;1.80;;
59193;SDS011;44967;48.598;15.650;2023-04-25T06:48:40;2.40;;;1.90;;
59193;SDS011;44967;48.598;15.650;2023-04-25T06:51:06;5.95;;;1.92;;
59193;SDS011;44967;48.598;15.650;2023-04-25T06:53:31;3.70;;;1.95;;
59193;SDS011;44967;48.598;15.650;2023-04-25T06:55:57;3.30;;;2.00;;
59193;SDS011;44967;48.598;15.650;2023-04-25T06:58:23;2.08;;;1.85;;
59193;SDS011;44967;48.598;15.650;2023-04-25T07:00:48;2.97;;;1.80;;
59193;SDS011;44967;48.598;15.650;2023-04-25T07:03:14;2.38;;;1.58;;
59193;SDS011;44967;48.598;15.650;2023-04-25T07:05:40;4.68;;;1.88;;
59193;SDS011;44967;48.598;15.650;2023-04-25T07:08:06;3.80;;;1.65;;
59193;SDS011;44967;48.598;15.650;2023-04-25T07:10:31;1.80;;;1.45;;
59193;SDS011;44967;48.598;15.650;2023-04-25T07:12:57;1.73;;;1.63;;
59193;SDS011;44967;48.598;15.650;2023-04-25T07:15:23;2.08;;;1.88;;
59193;SDS011;44967;48.598;15.650;2023-04-25T07:17:49;3.78;;;1.77;;
59193;SDS011;44967;48.598;15.650;2023-04-25T07:20:14;3.08;;;2.00;;
59193;SDS011;44967;48.598;15.650;2023-04-25T07:22:41;2.85;;;2.00;;
59193;SDS011;44967;48.598;15.650;2023-04-25T07:25:07;5.90;;;2.67;;
59193;SDS011;44967;48.598;15.650;2023-04-25T07:27:33;3.40;;;2.38;;
59193;SDS011;44967;48.598;15.650;2023-04-25T07:29:59;6.05;;;2.80;;
59193;SDS011;44967;48.598;15.650;2023-04-25T07:32:25;3.33;;;2.53;;
59193;SDS011;44967;48.598;15.650;2023-04-25T07:34:51;2.85;;;2.13;;
59193;SDS011;44967;48.598;15.650;2023-04-25T07:37:16;1.88;;;1.70;;
59193;SDS011;44967;48.598;15.650;2023-04-25T07:39:44;2.90;;;1.80;;
59193;SDS011;44967;48.598;15.650;2023-04-25T07:42:14;2.42;;;1.80;;
59193;SDS011;44967;48.598;15.650;2023-04-25T07:44:39;1.98;;;1.77;;
59193;SDS011;44967;48.598;15.650;2023-04-25T07:47:06;3.55;;;1.98;;
59193;SDS011;44967;48.598;15.650;2023-04-25T07:49:35;2.55;;;1.60;;
59193;SDS011;44967;48.598;15.650;2023-04-25T07:52:01;1.90;;;1.70;;
59193;SDS011;44967;48.598;15.650;2023-04-25T07:54:28;1.73;;;1.60;;
59193;SDS011;44967;48.598;15.650;2023-04-25T07:56:54;1.85;;;1.70;;
59193;SDS011;44967;48.598;15.650;2023-04-25T07:59:20;3.13;;;1.63;;
59193;SDS011;44967;48.598;15.650;2023-04-25T08:01:45;2.40;;;1.17;;
59193;SDS011;44967;48.598;15.650;2023-04-25T08:04:12;2.15;;;1.48;;
59193;SDS011;44967;48.598;15.650;2023-04-25T08:06:37;3.50;;;1.55;;
59193;SDS011;44967;48.598;15.650;2023-04-25T08:09:03;2.97;;;1.65;;
59193;SDS011;44967;48.598;15.650;2023-04-25T08:11:29;1.77;;;1.30;;
59193;SDS011;44967;48.598;15.650;2023-04-25T08:13:55;1.98;;;1.77;;
59193;SDS011;44967;48.598;15.650;2023-04-25T08:16:20;1.77;;;1.63;;
59193;SDS011;44967;48.598;15.650;2023-04-25T08:18:46;1.80;;;1.38;;
59193;SDS011;44967;48.598;15.650;2023-04-25T08:21:12;2.08;;;1.40;;
59193;SDS011;44967;48.598;15.650;2023-04-25T08:23:38;3.85;;;1.35;;
59193;SDS011;44967;48.598;15.650;2023-04-25T08:26:04;2.50;;;1.17;;
59193;SDS011;44967;48.598;15.650;2023-04-25T08:28:30;1.42;;;1.20;;
59193;SDS011;44967;48.598;15.650;2023-04-25T08:30:56;2.13;;;1.10;;
59193;SDS011;44967;48.598;15.650;2023-04-25T08:33:22;2.35;;;1.48;;
59193;SDS011;44967;48.598;15.650;2023-04-25T08:35:48;1.13;;;1.02;;
59193;SDS011;44967;48.598;15.650;2023-04-25T08:38:14;1.58;;;0.90;;
59193;SDS011;44967;48.598;15.650;2023-04-25T08:40:40;0.95;;;0.75;;
59193;SDS011;44967;48.598;15.650;2023-04-25T08:43:13;1.58;;;1.00;;
59193;SDS011;44967;48.598;15.650;2023-04-25T08:45:40;2.47;;;1.00;;
59193;SDS011;44967;48.598;15.650;2023-04-25T08:48:16;0.75;;;0.75;;
59193;SDS011;44967;48.598;15.650;2023-04-25T08:50:49;0.77;;;0.77;;
59193;SDS011;44967;48.598;15.650;2023-04-25T08:53:22;1.65;;;0.75;;
59193;SDS011;44967;48.598;15.650;2023-04-25T08:55:53;1.67;;;0.88;;
59193;SDS011;44967;48.598;15.650;2023-04-25T08:58:21;1.98;;;0.70;;
59193;SDS011;44967;48.598;15.650;2023-04-25T09:00:47;2.58;;;0.73;;
59193;SDS011;44967;48.598;15.650;2023-04-25T09:03:14;0.88;;;0.88;;
59193;SDS011;44967;48.598;15.650;2023-04-25T09:05:41;2.47;;;1.15;;
59193;SDS011;44967;48.598;15.650;2023-04-25T09:08:07;1.23;;;1.05;;
59193;SDS011;44967;48.598;15.650;2023-04-25T09:10:33;2.85;;;1.10;;
59193;SDS011;44967;48.598;15.650;2023-04-25T09:13:06;1.33;;;1.20;;
59193;SDS011;44967;48.598;15.650;2023-04-25T09:15:51;2.05;;;1.33;;
59193;SDS011;44967;48.598;15.650;2023-04-25T09:18:25;1.10;;;1.00;;
59193;SDS011;44967;48.598;15.650;2023-04-25T09:20:52;1.00;;;0.90;;
59193;SDS011;44967;48.598;15.650;2023-04-25T09:23:22;1.02;;;0.90;;
59193;SDS011;44967;48.598;15.650;2023-04-25T09:25:50;1.20;;;0.88;;
59193;SDS011;44967;48.598;15.650;2023-04-25T09:28:24;1.48;;;1.10;;
59193;SDS011;44967;48.598;15.650;2023-04-25T09:30:56;0.98;;;0.90;;
59193;SDS011;44967;48.598;15.650;2023-04-25T09:33:29;0.98;;;0.90;;
59193;SDS011;44967;48.598;15.650;2023-04-25T09:36:06;1.02;;;0.90;;
59193;SDS011;44967;48.598;15.650;2023-04-25T09:38:43;1.85;;;0.80;;
59193;SDS011;44967;48.598;15.650;2023-04-25T09:41:10;0.77;;;0.75;;
59193;SDS011;44967;48.598;15.650;2023-04-25T09:43:36;1.70;;;0.60;;
59193;SDS011;44967;48.598;15.650;2023-04-25T09:46:07;0.73;;;0.73;;
59193;SDS011;44967;48.598;15.650;2023-04-25T09:48:36;0.80;;;0.80;;
59193;SDS011;44967;48.598;15.650;2023-04-25T09:53:29;1.05;;;0.75;;
59193;SDS011;44967;48.598;15.650;2023-04-25T09:55:57;0.82;;;0.82;;
59193;SDS011;44967;48.598;15.650;2023-04-25T09:58:25;1.88;;;1.13;;
59193;SDS011;44967;48.598;15.650;2023-04-25T10:00:55;1.05;;;0.90;;
59193;SDS011;44967;48.598;15.650;2023-04-25T10:03:26;1.45;;;0.95;;
59193;SDS011;44967;48.598;15.650;2023-04-25T10:05:52;1.35;;;1.25;;
59193;SDS011;44967;48.598;15.650;2023-04-25T10:08:19;1.42;;;0.77;;
59193;SDS011;44967;48.598;15.650;2023-04-25T10:10:46;1.13;;;0.60;;
59193;SDS011;44967;48.598;15.650;2023-04-25T10:13:13;1.50;;;0.80;;
59193;SDS011;44967;48.598;15.650;2023-04-25T10:15:40;1.25;;;0.80;;
59193;SDS011;44967;48.598;15.650;2023-04-25T10:18:07;0.90;;;0.90;;
59193;SDS011;44967;48.598;15.650;2023-04-25T10:20:32;2.60;;;1.10;;
59193;SDS011;44967;48.598;15.650;2023-04-25T10:23:02;2.35;;;0.80;;
59193;SDS011;44967;48.598;15.650;2023-04-25T10:25:36;0.85;;;0.70;;
59193;SDS011;44967;48.598;15.650;2023-04-25T10:28:03;0.75;;;0.70;;
59193;SDS011;44967;48.598;15.650;2023-04-25T10:30:29;0.77;;;0.77;;
59193;SDS011;44967;48.598;15.650;2023-04-25T10:32:55;0.80;;;0.80;;
59193;SDS011;44967;48.598;15.650;2023-04-25T10:35:25;1.88;;;0.82;;
59193;SDS011;44967;48.598;15.650;2023-04-25T10:40:31;1.95;;;1.35;;
59193;SDS011;44967;48.598;15.650;2023-04-25T10:45:56;1.33;;;1.20;;
59193;SDS011;44967;48.598;15.650;2023-04-25T10:48:31;1.05;;;0.95;;
59193;SDS011;44967;48.598;15.650;2023-04-25T10:51:19;1.27;;;0.88;;
59193;SDS011;44967;48.598;15.650;2023-04-25T10:56:26;0.75;;;0.70;;
59193;SDS011;44967;48.598;15.650;2023-04-25T10:59:02;1.55;;;0.85;;
59193;SDS011;44967;48.598;15.650;2023-04-25T11:04:04;1.10;;;0.88;;
59193;SDS011;44967;48.598;15.650;2023-04-25T11:06:46;0.75;;;0.75;;
59193;SDS011;44967;48.598;15.650;2023-04-25T11:09:28;1.10;;;1.08;;
59193;SDS011;44967;48.598;15.650;2023-04-25T11:11:55;1.20;;;0.80;;
59193;SDS011;44967;48.598;15.650;2023-04-25T11:14:22;1.42;;;0.80;;
59193;SDS011;44967;48.598;15.650;2023-04-25T11:16:54;0.80;;;0.68;;
59193;SDS011;44967;48.598;15.650;2023-04-25T11:19:21;0.80;;;0.80;;
59193;SDS011;44967;48.598;15.650;2023-04-25T11:21:48;1.98;;;0.80;;
59193;SDS011;44967;48.598;15.650;2023-04-25T11:24:13;1.60;;;1.08;;
59193;SDS011;44967;48.598;15.650;2023-04-25T11:26:48;1.40;;;1.13;;
59193;SDS011;44967;48.598;15.650;2023-04-25T11:29:15;1.80;;;1.13;;
59193;SDS011;44967;48.598;15.650;2023-04-25T11:31:44;1.30;;;0.93;;
59193;SDS011;44967;48.598;15.650;2023-04-25T11:34:16;1.20;;;1.10;;
59193;SDS011;44967;48.598;15.650;2023-04-25T11:36:43;3.92;;;0.70;;
59193;SDS011;44967;48.598;15.650;2023-04-25T11:39:10;0.65;;;0.63;;
59193;SDS011;44967;48.598;15.650;2023-04-25T11:41:37;2.38;;;0.60;;
59193;SDS011;44967;48.598;15.650;2023-04-25T11:44:03;0.55;;;0.55;;
59193;SDS011;44967;48.598;15.650;2023-04-25T11:46:29;0.47;;;0.45;;
59193;SDS011;44967;48.598;15.650;2023-04-25T11:48:55;1.00;;;0.60;;
59193;SDS011;44967;48.598;15.650;2023-04-25T11:51:22;0.85;;;0.73;;
59193;SDS011;44967;48.598;15.650;2023-04-25T11:53:50;0.65;;;0.57;;
59193;SDS011;44967;48.598;15.650;2023-04-25T11:56:16;0.50;;;0.50;;
59193;SDS011;44967;48.598;15.650;2023-04-25T11:58:57;0.50;;;0.50;;
59193;SDS011;44967;48.598;15.650;2023-04-25T12:01:29;0.50;;;0.50;;
59193;SDS011;44967;48.598;15.650;2023-04-25T12:03:58;0.52;;;0.50;;
59193;SDS011;44967;48.598;15.650;2023-04-25T12:06:39;0.47;;;0.47;;
59193;SDS011;44967;48.598;15.650;2023-04-25T12:09:09;0.68;;;0.68;;
59193;SDS011;44967;48.598;15.650;2023-04-25T12:14:11;1.17;;;0.50;;
59193;SDS011;44967;48.598;15.650;2023-04-25T12:16:41;1.52;;;0.80;;
59193;SDS011;44967;48.598;15.650;2023-04-25T12:19:14;0.82;;;0.70;;
59193;SDS011;44967;48.598;15.650;2023-04-25T12:21:41;1.15;;;0.68;;
59193;SDS011;44967;48.598;15.650;2023-04-25T12:24:17;1.05;;;0.85;;
59193;SDS011;44967;48.598;15.650;2023-04-25T12:29:20;0.60;;;0.60;;
59193;SDS011;44967;48.598;15.650;2023-04-25T12:31:50;1.13;;;0.60;;
59193;SDS011;44967;48.598;15.650;2023-04-25T12:34:17;1.13;;;0.93;;
59193;SDS011;44967;48.598;15.650;2023-04-25T12:36:44;1.38;;;0.88;;
59193;SDS011;44967;48.598;15.650;2023-04-25T12:39:20;1.05;;;0.80;;
59193;SDS011;44967;48.598;15.650;2023-04-25T12:41:47;0.80;;;0.80;;
59193;SDS011;44967;48.598;15.650;2023-04-25T12:44:14;0.73;;;0.73;;
59193;SDS011;44967;48.598;15.650;2023-04-25T12:46:40;1.83;;;0.70;;
59193;SDS011;44967;48.598;15.650;2023-04-25T12:49:06;1.05;;;0.80;;
59193;SDS011;44967;48.598;15.650;2023-04-25T12:51:34;0.60;;;0.60;;
59193;SDS011;44967;48.598;15.650;2023-04-25T12:54:01;1.95;;;0.95;;
59193;SDS011;44967;48.598;15.650;2023-04-25T12:56:28;0.40;;;0.40;;
59193;SDS011;44967;48.598;15.650;2023-04-25T12:58:54;0.98;;;0.40;;
59193;SDS011;44967;48.598;15.650;2023-04-25T13:01:20;0.30;;;0.30;;
59193;SDS011;44967;48.598;15.650;2023-04-25T13:03:46;0.32;;;0.30;;
59193;SDS011;44967;48.598;15.650;2023-04-25T13:06:13;0.55;;;0.55;;
59193;SDS011;44967;48.598;15.650;2023-04-25T13:08:42;0.40;;;0.40;;
59193;SDS011;44967;48.598;15.650;2023-04-25T13:11:08;0.47;;;0.47;;
59193;SDS011;44967;48.598;15.650;2023-04-25T13:13:34;0.40;;;0.40;;
59193;SDS011;44967;48.598;15.650;2023-04-25T13:16:01;1.23;;;0.60;;
59193;SDS011;44967;48.598;15.650;2023-04-25T13:18:28;0.35;;;0.35;;
59193;SDS011;44967;48.598;15.650;2023-04-25T13:20:54;0.50;;;0.50;;
59193;SDS011;44967;48.598;15.650;2023-04-25T13:23:20;0.77;;;0.57;;
59193;SDS011;44967;48.598;15.650;2023-04-25T13:25:46;0.80;;;0.60;;
59193;SDS011;44967;48.598;15.650;2023-04-25T13:28:12;0.52;;;0.52;;
59193;SDS011;44967;48.598;15.650;2023-04-25T13:30:38;0.47;;;0.47;;
59193;SDS011;44967;48.598;15.650;2023-04-25T13:33:05;1.38;;;0.60;;
59193;SDS011;44967;48.598;15.650;2023-04-25T13:35:32;0.65;;;0.65;;
59193;SDS011;44967;48.598;15.650;2023-04-25T13:37:59;0.75;;;0.50;;
59193;SDS011;44967;48.598;15.650;2023-04-25T13:40:26;2.35;;;0.70;;
59193;SDS011;44967;48.598;15.650;2023-04-25T13:42:52;0.95;;;0.50;;
59193;SDS011;44967;48.598;15.650;2023-04-25T13:45:18;0.70;;;0.70;;
59193;SDS011;44967;48.598;15.650;2023-04-25T13:47:45;1.45;;;0.70;;
59193;SDS011;44967;48.598;15.650;2023-04-25T13:50:11;0.52;;;0.43;;
59193;SDS011;44967;48.598;15.650;2023-04-25T13:52:38;0.68;;;0.52;;
59193;SDS011;44967;48.598;15.650;2023-04-25T13:55:05;2.33;;;0.80;;
59193;SDS011;44967;48.598;15.650;2023-04-25T13:57:32;0.85;;;0.50;;
59193;SDS011;44967;48.598;15.650;2023-04-25T14:00:02;0.90;;;0.82;;
59193;SDS011;44967;48.598;15.650;2023-04-25T14:02:37;1.83;;;0.70;;
59193;SDS011;44967;48.598;15.650;2023-04-25T14:05:03;0.80;;;0.60;;
59193;SDS011;44967;48.598;15.650;2023-04-25T14:07:30;1.65;;;0.90;;
59193;SDS011;44967;48.598;15.650;2023-04-25T14:09:56;2.25;;;1.13;;
59193;SDS011;44967;48.598;15.650;2023-04-25T14:12:25;1.10;;;1.00;;
59193;SDS011;44967;48.598;15.650;2023-04-25T14:14:51;1.88;;;0.90;;
59193;SDS011;44967;48.598;15.650;2023-04-25T14:17:18;1.02;;;1.00;;
59193;SDS011;44967;48.598;15.650;2023-04-25T14:19:44;1.40;;;1.30;;
59193;SDS011;44967;48.598;15.650;2023-04-25T14:22:10;0.80;;;0.80;;
59193;SDS011;44967;48.598;15.650;2023-04-25T14:24:36;1.75;;;0.90;;
59193;SDS011;44967;48.598;15.650;2023-04-25T14:27:02;1.40;;;1.00;;
59193;SDS011;44967;48.598;15.650;2023-04-25T14:29:29;2.00;;;0.80;;
59193;SDS011;44967;48.598;15.650;2023-04-25T14:31:55;1.17;;;0.65;;
59193;SDS011;44967;48.598;15.650;2023-04-25T14:34:22;0.77;;;0.77;;
59193;SDS011;44967;48.598;15.650;2023-04-25T14:36:48;0.80;;;0.80;;
59193;SDS011;44967;48.598;15.650;2023-04-25T14:39:14;1.48;;;0.70;;
59193;SDS011;44967;48.598;15.650;2023-04-25T14:41:40;0.40;;;0.40;;
59193;SDS011;44967;48.598;15.650;2023-04-25T14:44:06;1.05;;;0.70;;
59193;SDS011;44967;48.598;15.650;2023-04-25T14:46:31;0.73;;;0.73;;
59193;SDS011;44967;48.598;15.650;2023-04-25T14:48:57;0.60;;;0.60;;
59193;SDS011;44967;48.598;15.650;2023-04-25T14:51:23;0.43;;;0.30;;